Página principal
METAR-TAF:

METAR-TAF

Aeroportos :

Bucara, Uzbequistão

latitude: 39-46-30N, longitude: 064-29-00E, altura: 229 m

Observação actual do tempo

O boletim foi feito há 56 minutos, às 20:00 UTC
Vento 6 kt de nor-noroeste
Temperatura 3°C
Humidade 65%
Pressão 1026 hPa
Visibilidade 10 km ou mais
sem nuvens abaixo de 1500 metros e sem cumulonimbus

METAR: UTSB 182000Z 34006KT CAVOK 03/M03 Q1026 R01/CLRD70 NOSIG

Hora: 01:56 (20:56 UTC)

Previsão

O boletim foi feito há 3 horas e 56 minutos, às 17:00 UTC
Previsão válida de 18 às 18 UTC a 19 às 18 UTC
Vento 3 kt com direcção variável
Visibilidade: 7000 m
Temporariamente
de 18 às 18 UTC a 19 às 03 UTC
Vento 10 kt de norte
Visibilidade: 3000 m
Poucas nuvensa uma altura de 5000 ft, Cumulonimbus.
neblina

TAF: UTSB 181700Z 1818/1918 VRB03KT 7000 NSC TEMPO 1818/1903 35010KT 3000 BR FEW050CB

Observações e previsões do tempo de mais de 4000 aeroportos (mensagens METAR e TAF).

As estações disponíveis são os pontos amarelos e vermelhos sobre o mapa.

Mova o rato sobre o mapa para ver o nome da estação.

Depois clique no ponto para visualizar as observações e previsões meteorológicas.

Para alterar o mapa : clique nos botões verdes com uma cruz preta para aumentar o zoom; no botão verde com uma pitada de zoom; ou nas setas verdes para mapas adjacentes.


METAR-TAF: